createdAt,value
2022-10-13T00:01:12.319Z,12.88
2022-10-13T00:03:40.714Z,12.83
2022-10-13T00:06:08.879Z,12.82
2022-10-13T00:08:38.748Z,12.77
2022-10-13T00:11:20.677Z,12.78
2022-10-13T00:13:47.842Z,12.76
2022-10-13T00:16:17.292Z,12.79
2022-10-13T00:18:45.283Z,12.80
2022-10-13T00:21:17.758Z,12.84
2022-10-13T00:23:44.326Z,12.76
2022-10-13T00:26:12.381Z,12.72
2022-10-13T00:28:39.602Z,12.75
2022-10-13T00:31:21.158Z,12.71
2022-10-13T00:33:49.219Z,12.72
2022-10-13T00:36:16.470Z,12.68
2022-10-13T00:38:43.795Z,12.76
2022-10-13T00:41:10.641Z,12.67
2022-10-13T00:44:12.603Z,12.59
2022-10-13T00:46:39.049Z,12.57
2022-10-13T00:49:11.993Z,12.56
2022-10-13T00:51:43.896Z,12.62
2022-10-13T00:54:13.788Z,12.56
2022-10-13T00:56:43.823Z,12.50
2022-10-13T00:59:19.054Z,12.46
2022-10-13T01:01:45.474Z,12.46
2022-10-13T01:04:12.152Z,12.41
2022-10-13T01:06:38.736Z,12.41
2022-10-13T01:09:05.147Z,12.45
2022-10-13T01:11:37.815Z,12.28
2022-10-13T01:14:19.188Z,12.26
2022-10-13T01:17:06.642Z,12.28
2022-10-13T01:19:39.009Z,12.33
2022-10-13T01:22:39.751Z,12.35
2022-10-13T01:25:28.685Z,12.29
2022-10-13T01:28:07.334Z,12.31
2022-10-13T01:30:52.090Z,12.25
2022-10-13T01:33:56.927Z,12.22
2022-10-13T01:36:35.629Z,12.22
2022-10-13T01:39:14.737Z,12.20
2022-10-13T01:41:46.932Z,12.16
2022-10-13T01:44:28.761Z,12.22
2022-10-13T01:46:55.248Z,12.36
2022-10-13T01:49:27.438Z,12.30
2022-10-13T01:51:56.493Z,12.20
2022-10-13T01:54:22.915Z,12.38
2022-10-13T01:56:56.759Z,12.29
2022-10-13T01:59:28.389Z,12.22
2022-10-13T02:01:59.967Z,12.25
2022-10-13T02:04:41.673Z,12.20
2022-10-13T02:07:34.442Z,12.16
2022-10-13T02:10:05.671Z,12.17
2022-10-13T02:12:50.799Z,12.27
2022-10-13T02:15:22.963Z,12.27
2022-10-13T02:17:51.034Z,12.23
2022-10-13T02:20:22.392Z,12.15
2022-10-13T02:22:54.623Z,12.21
2022-10-13T02:25:21.104Z,12.21
2022-10-13T02:27:47.706Z,12.21
2022-10-13T02:30:41.155Z,12.17
2022-10-13T02:33:08.885Z,12.18
2022-10-13T02:35:40.179Z,12.17
2022-10-13T02:38:06.976Z,12.08
2022-10-13T02:40:33.911Z,12.17
2022-10-13T02:43:00.400Z,12.12
2022-10-13T02:45:26.868Z,12.08
2022-10-13T02:47:55.750Z,12.03
2022-10-13T02:50:22.221Z,12.07
2022-10-13T02:52:48.669Z,12.02
2022-10-13T02:55:15.202Z,12.03
2022-10-13T02:57:41.702Z,12.04
2022-10-13T03:00:09.075Z,12.01
2022-10-13T03:02:35.538Z,11.98
2022-10-13T03:05:01.960Z,11.89
2022-10-13T03:07:30.794Z,11.76
2022-10-13T03:09:59.470Z,11.85
2022-10-13T03:12:25.954Z,11.78
2022-10-13T03:14:52.448Z,11.75
2022-10-13T03:17:19.021Z,11.69
2022-10-13T03:19:48.262Z,11.72
2022-10-13T03:22:15.506Z,11.77
2022-10-13T03:24:45.073Z,11.55
2022-10-13T03:27:11.585Z,11.52
2022-10-13T03:29:38.007Z,11.67
2022-10-13T03:32:04.537Z,11.63
2022-10-13T03:34:31.076Z,11.59
2022-10-13T03:36:57.841Z,11.66
2022-10-13T03:39:24.400Z,11.61
2022-10-13T03:41:50.845Z,11.52
2022-10-13T03:44:17.316Z,11.54
2022-10-13T03:46:44.556Z,11.44
2022-10-13T03:49:12.314Z,11.46
2022-10-13T03:51:41.516Z,11.48
2022-10-13T03:54:11.739Z,11.37
2022-10-13T03:56:39.478Z,11.35
2022-10-13T03:59:06.630Z,11.31
2022-10-13T04:01:33.981Z,11.34
2022-10-13T04:04:02.427Z,11.47
2022-10-13T04:06:30.490Z,11.42
2022-10-13T04:08:57.795Z,11.40
2022-10-13T04:11:24.457Z,11.45
2022-10-13T04:13:51.769Z,11.33
2022-10-13T04:16:23.991Z,11.32
2022-10-13T04:18:53.477Z,11.38
2022-10-13T04:21:20.228Z,11.35
2022-10-13T04:23:46.686Z,11.28
2022-10-13T04:26:18.446Z,11.27
2022-10-13T04:28:46.435Z,11.20
2022-10-13T04:31:15.646Z,11.21
2022-10-13T04:33:42.609Z,11.28
2022-10-13T04:36:11.954Z,11.34
2022-10-13T04:38:38.763Z,11.27
2022-10-13T04:41:09.347Z,11.20
2022-10-13T04:43:36.254Z,11.23
2022-10-13T04:46:08.412Z,11.14
2022-10-13T04:48:35.004Z,11.25
2022-10-13T04:51:13.570Z,11.19
2022-10-13T04:53:40.842Z,11.18
2022-10-13T04:56:13.914Z,11.13
2022-10-13T04:58:43.678Z,11.13
2022-10-13T05:01:21.517Z,11.19
2022-10-13T05:04:00.537Z,11.23
2022-10-13T05:06:30.052Z,11.24
2022-10-13T05:08:57.028Z,11.29
2022-10-13T05:11:25.411Z,11.23
2022-10-13T05:13:52.391Z,11.27
2022-10-13T05:16:21.085Z,11.24
2022-10-13T05:18:48.934Z,11.29
2022-10-13T05:21:20.977Z,11.29
2022-10-13T05:23:48.032Z,11.40
2022-10-13T05:26:20.866Z,11.37
2022-10-13T05:28:47.513Z,11.15
2022-10-13T05:31:20.551Z,11.17
2022-10-13T05:33:48.268Z,11.27
2022-10-13T05:36:17.073Z,11.58
2022-10-13T05:38:44.124Z,11.59
2022-10-13T05:41:15.309Z,11.41
2022-10-13T05:43:42.466Z,11.54
2022-10-13T05:46:09.495Z,11.39
2022-10-13T05:48:37.297Z,11.33
2022-10-13T05:51:11.055Z,11.43
2022-10-13T05:53:42.672Z,11.38
2022-10-13T05:56:16.331Z,11.41
2022-10-13T05:58:50.993Z,11.38
2022-10-13T06:01:27.624Z,11.45
2022-10-13T06:04:01.284Z,11.50
2022-10-13T06:06:31.258Z,11.52
2022-10-13T06:08:58.827Z,11.56
2022-10-13T06:11:25.313Z,11.63
2022-10-13T06:13:51.703Z,11.60
2022-10-13T06:16:18.323Z,11.61
2022-10-13T06:18:47.285Z,11.56
2022-10-13T06:21:13.755Z,11.60
2022-10-13T06:23:40.199Z,11.67
2022-10-13T06:26:07.646Z,11.73
2022-10-13T06:28:36.927Z,11.65
2022-10-13T06:31:06.636Z,11.78
2022-10-13T06:33:33.740Z,11.89
2022-10-13T06:36:04.612Z,11.86
2022-10-13T06:38:31.608Z,11.87
2022-10-13T06:41:05.378Z,11.90
2022-10-13T06:43:39.676Z,11.90
2022-10-13T06:46:06.879Z,11.91
2022-10-13T06:48:33.384Z,12.03
2022-10-13T06:51:08.744Z,12.00
2022-10-13T06:53:35.979Z,12.14
2022-10-13T06:56:05.836Z,12.28
2022-10-13T06:58:32.462Z,12.28
2022-10-13T07:00:58.926Z,12.31
2022-10-13T07:03:26.034Z,12.35
2022-10-13T07:05:52.505Z,12.31
2022-10-13T07:08:19.328Z,12.27
2022-10-13T07:10:48.791Z,12.31
2022-10-13T07:13:15.292Z,12.38
2022-10-13T07:15:41.783Z,12.54
2022-10-13T07:18:08.234Z,12.43
2022-10-13T07:20:35.657Z,12.42
2022-10-13T07:23:04.384Z,12.51
2022-10-13T07:25:30.995Z,12.62
2022-10-13T07:27:59.216Z,12.76
2022-10-13T07:30:26.242Z,12.74
2022-10-13T07:32:53.184Z,12.77
2022-10-13T07:35:19.873Z,12.78
2022-10-13T07:37:46.308Z,12.81
2022-10-13T07:40:12.828Z,12.92
2022-10-13T07:42:39.293Z,12.94
2022-10-13T07:45:08.894Z,12.92
2022-10-13T07:47:35.360Z,12.95
2022-10-13T07:50:04.544Z,13.00
2022-10-13T07:52:31.010Z,13.05
2022-10-13T07:54:57.397Z,13.07
2022-10-13T07:57:27.305Z,13.25
2022-10-13T07:59:54.068Z,13.21
2022-10-13T08:02:20.940Z,13.22
2022-10-13T08:04:47.580Z,13.35
2022-10-13T08:07:14.123Z,13.41
2022-10-13T08:09:40.662Z,13.47
2022-10-13T08:12:07.077Z,13.54
2022-10-13T08:14:35.839Z,13.52
2022-10-13T08:17:02.594Z,13.52
2022-10-13T08:19:29.052Z,13.51
2022-10-13T08:21:59.873Z,13.57
2022-10-13T08:24:29.974Z,13.76
2022-10-13T08:26:56.482Z,13.71
2022-10-13T08:29:24.098Z,13.77
2022-10-13T08:31:53.128Z,13.82
2022-10-13T08:34:19.897Z,13.89
2022-10-13T08:36:46.424Z,13.91
2022-10-13T08:39:13.940Z,13.91
2022-10-13T08:41:46.392Z,13.88
2022-10-13T08:47:33.847Z,14.02
2022-10-13T08:50:10.070Z,14.25
2022-10-13T08:52:52.607Z,14.33
2022-10-13T08:55:40.972Z,14.38
2022-10-13T08:58:19.520Z,14.46
2022-10-13T09:00:46.265Z,14.57
2022-10-13T09:03:23.780Z,14.73
2022-10-13T09:06:15.263Z,14.91
2022-10-13T09:08:54.921Z,14.92
2022-10-13T09:11:23.623Z,14.96
2022-10-13T09:13:54.927Z,15.10
2022-10-13T09:16:39.044Z,15.18
2022-10-13T09:19:40.816Z,15.39
2022-10-13T09:22:26.135Z,15.33
2022-10-13T09:25:12.452Z,15.40
2022-10-13T09:27:41.917Z,15.60
2022-10-13T09:30:38.289Z,15.84
2022-10-13T09:33:04.694Z,16.13
2022-10-13T09:35:34.928Z,16.13
2022-10-13T09:38:05.576Z,16.20
2022-10-13T09:40:32.854Z,16.21
2022-10-13T09:43:01.789Z,16.44
2022-10-13T09:45:30.968Z,16.45
2022-10-13T09:48:04.725Z,16.25
2022-10-13T09:50:32.375Z,16.52
2022-10-13T09:53:18.911Z,16.45
2022-10-13T09:55:49.598Z,16.24
2022-10-13T09:58:21.430Z,16.52
2022-10-13T10:00:49.797Z,16.38
2022-10-13T10:03:19.459Z,16.28
2022-10-13T10:05:59.023Z,16.24
2022-10-13T10:09:04.271Z,16.12
2022-10-13T10:11:37.532Z,15.91
2022-10-13T10:14:15.696Z,15.81
2022-10-13T10:16:46.004Z,15.81
2022-10-13T10:19:21.682Z,15.75
2022-10-13T10:22:04.166Z,15.84
2022-10-13T10:24:49.268Z,15.90
2022-10-13T10:27:21.473Z,16.01
2022-10-13T10:30:26.549Z,16.16
2022-10-13T10:32:54.950Z,16.40
2022-10-13T10:35:40.074Z,16.38
2022-10-13T10:38:22.594Z,16.40
2022-10-13T10:41:01.122Z,16.59
2022-10-13T10:43:27.420Z,16.38
2022-10-13T10:45:56.636Z,16.35
2022-10-13T10:48:24.191Z,16.60
2022-10-13T10:50:51.542Z,16.64
2022-10-13T10:53:33.210Z,16.90
2022-10-13T10:56:04.623Z,16.78
2022-10-13T10:58:33.956Z,16.75
2022-10-13T11:01:03.336Z,16.80
2022-10-13T11:03:40.383Z,16.62
2022-10-13T11:06:12.902Z,16.88
2022-10-13T11:08:41.392Z,16.49
2022-10-13T11:11:24.815Z,16.52
2022-10-13T11:13:55.076Z,16.54
2022-10-13T11:16:29.481Z,16.63
2022-10-13T11:18:55.772Z,16.50
2022-10-13T11:21:22.506Z,16.61
2022-10-13T11:23:49.921Z,16.80
2022-10-13T11:26:28.625Z,16.71
2022-10-13T11:28:55.160Z,16.75
2022-10-13T11:31:25.888Z,16.93
2022-10-13T11:33:54.686Z,16.88
2022-10-13T11:36:39.871Z,16.97
2022-10-13T11:39:06.185Z,17.00
2022-10-13T11:41:39.901Z,16.76
2022-10-13T11:44:21.533Z,16.71
2022-10-13T11:46:50.663Z,16.53
2022-10-13T11:49:35.781Z,16.80
2022-10-13T11:52:17.985Z,16.89
2022-10-13T11:54:53.749Z,16.78
2022-10-13T11:57:27.155Z,16.78
2022-10-13T11:59:55.769Z,16.94
2022-10-13T12:02:26.741Z,16.90
2022-10-13T12:05:19.430Z,16.91
2022-10-13T12:07:46.886Z,17.03
2022-10-13T12:10:18.885Z,17.07
2022-10-13T12:12:49.078Z,17.15
2022-10-13T12:15:30.499Z,17.07
2022-10-13T12:17:59.198Z,17.19
2022-10-13T12:20:27.994Z,17.38
2022-10-13T12:22:55.552Z,17.48
2022-10-13T12:25:24.033Z,17.29
2022-10-13T12:27:52.301Z,17.45
2022-10-13T12:30:20.828Z,17.55
2022-10-13T12:32:52.057Z,17.50
2022-10-13T12:35:24.002Z,17.51
2022-10-13T12:37:51.665Z,17.47
2022-10-13T12:40:18.963Z,17.32
2022-10-13T12:42:45.603Z,17.58
2022-10-13T12:45:19.270Z,17.51
2022-10-13T12:47:45.735Z,17.68
2022-10-13T12:50:27.476Z,17.75
2022-10-13T12:52:57.201Z,17.75
2022-10-13T12:55:23.837Z,17.80
2022-10-13T12:57:52.876Z,17.78
2022-10-13T13:00:19.376Z,17.59
2022-10-13T13:03:05.356Z,17.86
2022-10-13T13:05:46.791Z,17.88
2022-10-13T13:08:31.858Z,17.84
2022-10-13T13:11:03.224Z,17.92
2022-10-13T13:13:29.991Z,17.57
2022-10-13T13:16:15.880Z,17.50
2022-10-13T13:18:46.995Z,17.48
2022-10-13T13:21:14.809Z,17.26
2022-10-13T13:23:41.825Z,17.40
2022-10-13T13:26:13.399Z,17.44
2022-10-13T13:29:05.771Z,17.39
2022-10-13T13:31:32.073Z,17.52
2022-10-13T13:33:58.468Z,17.17
2022-10-13T13:36:28.155Z,17.02
2022-10-13T13:38:54.828Z,17.21
2022-10-13T13:41:21.301Z,17.19
2022-10-13T13:43:47.662Z,17.00
2022-10-13T13:46:21.531Z,17.07
2022-10-13T13:48:47.828Z,17.00
2022-10-13T13:51:14.334Z,17.15
2022-10-13T13:53:40.936Z,17.11
2022-10-13T13:56:18.386Z,17.30
2022-10-13T13:58:44.979Z,17.21
2022-10-13T14:01:11.781Z,17.22
2022-10-13T14:03:38.538Z,17.09
2022-10-13T14:06:05.074Z,17.08
2022-10-13T14:08:35.463Z,16.96
2022-10-13T14:11:05.678Z,16.97
2022-10-13T14:13:31.967Z,16.99
2022-10-13T14:15:58.767Z,17.00
2022-10-13T14:18:25.489Z,17.00
2022-10-13T14:20:51.787Z,17.07
2022-10-13T14:23:18.522Z,17.05
2022-10-13T14:25:44.843Z,17.18
2022-10-13T14:28:14.589Z,16.99
2022-10-13T14:30:44.789Z,16.98
2022-10-13T14:33:11.140Z,16.92
2022-10-13T14:35:37.453Z,16.85
2022-10-13T14:38:03.880Z,16.98
2022-10-13T14:40:30.269Z,16.96
2022-10-13T14:42:59.059Z,16.98
2022-10-13T14:45:25.505Z,17.08
2022-10-13T14:47:53.219Z,16.82
2022-10-13T14:50:19.747Z,16.80
2022-10-13T14:52:46.153Z,16.76
2022-10-13T14:55:12.552Z,16.78
2022-10-13T14:57:39.013Z,16.78
2022-10-13T15:00:05.590Z,16.80
2022-10-13T15:02:32.096Z,16.80
2022-10-13T15:05:01.068Z,16.67
2022-10-13T15:07:27.488Z,16.70
2022-10-13T15:10:05.020Z,16.72
2022-10-13T15:12:32.660Z,16.65
2022-10-13T15:14:59.061Z,16.56
2022-10-13T15:17:25.500Z,16.58
2022-10-13T15:19:51.862Z,16.52
2022-10-13T15:22:20.993Z,16.55
2022-10-13T15:24:47.702Z,16.41
2022-10-13T15:27:14.237Z,16.25
2022-10-13T15:29:43.150Z,16.13
2022-10-13T15:32:11.094Z,15.97
2022-10-13T15:34:42.983Z,16.08
2022-10-13T15:37:12.015Z,16.13
2022-10-13T15:39:38.410Z,16.08
2022-10-13T15:42:05.313Z,15.91
2022-10-13T15:44:51.154Z,15.76
2022-10-13T15:47:18.391Z,15.54
2022-10-13T15:49:44.710Z,15.56
2022-10-13T15:52:13.643Z,15.57
2022-10-13T15:54:40.868Z,15.45
2022-10-13T15:57:07.753Z,15.36
2022-10-13T15:59:34.090Z,15.28
2022-10-13T16:02:00.398Z,15.14
2022-10-13T16:04:26.697Z,15.10
2022-10-13T16:06:55.457Z,15.09
2022-10-13T16:09:21.795Z,15.03
2022-10-13T16:11:48.101Z,14.99
2022-10-13T16:14:14.475Z,14.92
2022-10-13T16:16:40.785Z,14.86
2022-10-13T16:19:07.166Z,14.81
2022-10-13T16:21:33.472Z,14.83
2022-10-13T16:24:00.033Z,15.00
2022-10-13T16:26:26.462Z,14.85
2022-10-13T16:28:56.774Z,14.69
2022-10-13T16:31:23.608Z,14.58
2022-10-13T16:33:52.546Z,14.45
2022-10-13T16:36:19.365Z,14.40
2022-10-13T16:38:46.538Z,14.34
2022-10-13T16:41:14.631Z,14.21
2022-10-13T16:43:42.034Z,14.33
2022-10-13T16:46:11.205Z,14.24
2022-10-13T16:48:37.527Z,14.23
2022-10-13T16:51:04.669Z,14.15
2022-10-13T16:53:30.979Z,13.96
2022-10-13T16:55:57.310Z,13.89
2022-10-13T16:58:23.620Z,13.88
2022-10-13T17:00:52.383Z,13.74
2022-10-13T17:03:18.778Z,13.77
2022-10-13T17:05:45.127Z,13.80
2022-10-13T17:08:11.505Z,13.90
2022-10-13T17:10:37.955Z,13.81
2022-10-13T17:13:04.338Z,13.81
2022-10-13T17:15:30.675Z,13.73
2022-10-13T17:17:57.150Z,13.78
2022-10-13T17:20:26.060Z,13.73
2022-10-13T17:22:52.397Z,13.56
2022-10-13T17:25:18.722Z,13.52
2022-10-13T17:27:45.081Z,13.47
2022-10-13T17:30:11.632Z,13.38
2022-10-13T17:32:39.076Z,13.16
2022-10-13T17:35:06.339Z,13.42
2022-10-13T17:37:32.830Z,13.33
2022-10-13T17:39:59.159Z,13.17
2022-10-13T17:42:25.479Z,13.17
2022-10-13T17:44:51.935Z,13.18
2022-10-13T17:47:18.482Z,13.11
2022-10-13T17:49:45.077Z,12.98
2022-10-13T17:52:11.435Z,13.01
2022-10-13T17:54:37.967Z,12.99
2022-10-13T17:57:04.294Z,12.77
2022-10-13T17:59:30.712Z,12.67
2022-10-13T18:01:57.155Z,12.61
2022-10-13T18:04:23.718Z,12.58
2022-10-13T18:06:52.509Z,12.57
2022-10-13T18:09:19.899Z,12.57
2022-10-13T18:11:50.727Z,12.61
2022-10-13T18:14:21.468Z,12.57
2022-10-13T18:16:51.048Z,12.49
2022-10-13T18:19:17.536Z,12.48
2022-10-13T18:21:46.331Z,12.48
2022-10-13T18:24:15.469Z,12.27
2022-10-13T18:26:42.008Z,12.31
2022-10-13T18:29:09.281Z,12.24
2022-10-13T18:31:36.674Z,12.26
2022-10-13T18:34:04.633Z,12.19
2022-10-13T18:36:35.611Z,12.24
2022-10-13T18:39:03.544Z,12.27
2022-10-13T18:41:31.009Z,12.42
2022-10-13T18:43:57.627Z,12.27
2022-10-13T18:46:24.065Z,12.23
2022-10-13T18:48:50.586Z,12.29
2022-10-13T18:51:20.588Z,12.19
2022-10-13T18:53:48.017Z,12.06
2022-10-13T18:56:14.403Z,11.94
2022-10-13T18:58:41.224Z,11.91
2022-10-13T19:01:09.088Z,11.85
2022-10-13T19:03:39.116Z,11.79
2022-10-13T19:06:06.658Z,11.85
2022-10-13T19:08:33.104Z,11.81
2022-10-13T19:11:02.002Z,11.70
2022-10-13T19:13:28.563Z,11.56
2022-10-13T19:16:02.068Z,11.67
2022-10-13T19:18:28.568Z,11.52
2022-10-13T19:20:54.977Z,11.52
2022-10-13T19:23:21.978Z,11.53
2022-10-13T19:25:48.709Z,11.38
2022-10-13T19:28:15.388Z,11.27
2022-10-13T19:30:42.098Z,11.37
2022-10-13T19:33:09.588Z,11.37
2022-10-13T19:35:42.720Z,11.35
2022-10-13T19:38:09.399Z,11.31
2022-10-13T19:40:40.071Z,11.26
2022-10-13T19:43:08.791Z,11.16
2022-10-13T19:45:35.198Z,11.23
2022-10-13T19:48:01.554Z,11.31
2022-10-13T19:50:28.042Z,11.02
2022-10-13T19:52:54.474Z,11.03
2022-10-13T19:55:20.978Z,10.99
2022-10-13T19:57:47.321Z,10.87
2022-10-13T20:00:14.067Z,10.89
2022-10-13T20:02:40.412Z,10.77
2022-10-13T20:05:07.027Z,10.89
2022-10-13T20:07:33.457Z,10.86
2022-10-13T20:09:59.847Z,10.96
2022-10-13T20:12:26.241Z,10.96
2022-10-13T20:14:52.630Z,10.87
2022-10-13T20:17:21.620Z,10.88
2022-10-13T20:19:48.132Z,10.91
2022-10-13T20:22:16.945Z,11.01
2022-10-13T20:24:47.364Z,10.86
2022-10-13T20:27:13.703Z,10.91
2022-10-13T20:29:40.020Z,10.96
2022-10-13T20:32:06.319Z,10.95
2022-10-13T20:34:32.847Z,10.87
2022-10-13T20:37:01.292Z,10.88
2022-10-13T20:39:27.611Z,10.84
2022-10-13T20:41:54.022Z,10.78
2022-10-13T20:44:20.374Z,10.69
2022-10-13T20:46:46.756Z,10.76
2022-10-13T20:49:13.676Z,10.76
2022-10-13T20:51:40.813Z,10.76
2022-10-13T20:54:09.690Z,10.76
2022-10-13T20:56:36.142Z,10.75
2022-10-13T20:59:06.790Z,10.76
2022-10-13T21:01:33.510Z,10.64
2022-10-13T21:03:59.818Z,10.63
2022-10-13T21:06:27.042Z,10.65
2022-10-13T21:08:53.542Z,10.61
2022-10-13T21:11:23.014Z,10.58
2022-10-13T21:13:49.861Z,10.55
2022-10-13T21:16:17.833Z,10.64
2022-10-13T21:18:47.840Z,10.57
2022-10-13T21:21:14.791Z,10.69
2022-10-13T21:23:41.277Z,10.64
2022-10-13T21:26:08.825Z,10.54
2022-10-13T21:28:40.730Z,10.57
2022-10-13T21:31:08.430Z,10.49
2022-10-13T21:33:35.828Z,10.53
2022-10-13T21:36:05.438Z,10.61
2022-10-13T21:38:31.724Z,10.47
2022-10-13T21:40:58.049Z,10.48
2022-10-13T21:43:24.359Z,10.47
2022-10-13T21:45:50.707Z,10.52
2022-10-13T21:48:17.035Z,10.52
2022-10-13T21:50:43.397Z,10.47
2022-10-13T21:53:09.721Z,10.51
2022-10-13T21:55:36.020Z,10.46
2022-10-13T21:58:05.251Z,10.51
2022-10-13T22:00:32.168Z,10.44
2022-10-13T22:02:58.515Z,10.30
2022-10-13T22:05:24.865Z,10.37
2022-10-13T22:07:51.190Z,10.41
2022-10-13T22:10:17.635Z,10.45
2022-10-13T22:12:44.182Z,10.46
2022-10-13T22:15:11.583Z,10.50
2022-10-13T22:17:37.951Z,10.69
2022-10-13T22:20:04.440Z,10.69
2022-10-13T22:22:31.180Z,10.70
2022-10-13T22:25:00.180Z,10.81
2022-10-13T22:27:28.978Z,10.61
2022-10-13T22:29:55.338Z,10.60
2022-10-13T22:32:21.632Z,10.69
2022-10-13T22:34:50.506Z,10.64
2022-10-13T22:37:17.160Z,10.55
2022-10-13T22:39:43.471Z,10.51
2022-10-13T22:42:09.790Z,10.64
2022-10-13T22:44:36.130Z,10.53
2022-10-13T22:47:02.442Z,10.64
2022-10-13T22:49:28.750Z,10.76
2022-10-13T22:51:55.078Z,10.72
2022-10-13T22:54:21.400Z,10.74
2022-10-13T22:56:47.735Z,10.69
2022-10-13T22:59:14.084Z,10.64
2022-10-13T23:01:40.611Z,10.66
2022-10-13T23:04:09.608Z,10.72
2022-10-13T23:06:35.988Z,10.80
2022-10-13T23:09:04.470Z,10.68
2022-10-13T23:11:33.664Z,10.79
2022-10-13T23:14:00.560Z,10.73
2022-10-13T23:16:27.394Z,10.77
2022-10-13T23:18:53.880Z,10.64
2022-10-13T23:21:21.368Z,10.62
2022-10-13T23:23:47.800Z,10.65
2022-10-13T23:26:15.607Z,10.75
2022-10-13T23:28:42.216Z,10.75
2022-10-13T23:31:10.966Z,10.75
2022-10-13T23:33:37.401Z,10.81
2022-10-13T23:36:04.212Z,10.87
2022-10-13T23:38:30.887Z,10.82
2022-10-13T23:41:07.333Z,10.82
2022-10-13T23:43:33.912Z,10.89
2022-10-13T23:46:02.632Z,10.96
2022-10-13T23:48:33.913Z,11.07
2022-10-13T23:51:04.941Z,11.06
2022-10-13T23:53:33.491Z,11.04
2022-10-13T23:56:01.120Z,11.05
2022-10-13T23:58:32.152Z,10.99
